createdAt,value
2022-11-24T00:01:28.802Z,85.92
2022-11-24T00:04:01.222Z,86.41
2022-11-24T00:06:30.305Z,85.57
2022-11-24T00:08:58.223Z,86.56
2022-11-24T00:11:28.375Z,88.55
2022-11-24T00:13:55.916Z,88.26
2022-11-24T00:16:36.093Z,90.19
2022-11-24T00:19:06.646Z,90.35
2022-11-24T00:21:33.895Z,89.77
2022-11-24T00:24:01.325Z,90.25
2022-11-24T00:26:30.660Z,90.44
2022-11-24T00:29:00.282Z,90.05
2022-11-24T00:31:36.241Z,90.12
2022-11-24T00:34:06.353Z,90.07
2022-11-24T00:36:35.475Z,89.37
2022-11-24T00:39:05.733Z,89.04
2022-11-24T00:41:33.200Z,89.44
2022-11-24T00:44:00.950Z,89.06
2022-11-24T00:46:29.277Z,89.25
2022-11-24T00:48:57.028Z,89.46
2022-11-24T00:51:28.120Z,90.02
2022-11-24T00:53:56.630Z,90.18
2022-11-24T00:56:28.001Z,90.16
2022-11-24T00:58:57.026Z,88.83
2022-11-24T01:01:26.642Z,88.82
2022-11-24T01:03:57.011Z,89.53
2022-11-24T01:06:30.356Z,89.71
2022-11-24T01:08:58.132Z,90.08
2022-11-24T01:11:50.631Z,90.27
2022-11-24T01:14:18.269Z,90.71
2022-11-24T01:16:45.264Z,91.14
2022-11-24T01:19:12.502Z,90.82
2022-11-24T01:21:40.405Z,91.19
2022-11-24T01:24:07.559Z,91.17
2022-11-24T01:26:34.569Z,91.39
2022-11-24T01:29:01.569Z,91.00
2022-11-24T01:31:28.895Z,91.51
2022-11-24T01:33:56.108Z,92.68
2022-11-24T01:36:23.113Z,93.30
2022-11-24T01:38:50.489Z,93.68
2022-11-24T01:41:20.897Z,94.14
2022-11-24T01:43:48.689Z,94.16
2022-11-24T01:46:43.722Z,92.76
2022-11-24T01:49:18.235Z,92.43
2022-11-24T01:51:51.532Z,92.40
2022-11-24T01:57:00.085Z,92.52
2022-11-24T01:59:27.364Z,92.43
2022-11-24T02:01:55.765Z,91.97
2022-11-24T02:04:28.184Z,87.84
2022-11-24T02:06:59.425Z,89.85
2022-11-24T02:09:56.839Z,91.38
2022-11-24T02:12:25.511Z,90.88
2022-11-24T02:14:53.537Z,91.20
2022-11-24T02:17:20.991Z,88.57
2022-11-24T02:20:09.188Z,90.90
2022-11-24T02:23:10.280Z,93.40
2022-11-24T02:25:58.456Z,93.12
2022-11-24T02:28:29.886Z,93.90
2022-11-24T02:30:57.605Z,92.60
2022-11-24T02:33:33.620Z,92.97
2022-11-24T02:36:00.692Z,94.70
2022-11-24T02:38:35.217Z,95.38
2022-11-24T02:41:14.924Z,96.33
2022-11-24T02:43:47.648Z,97.04
2022-11-24T02:46:14.691Z,97.12
2022-11-24T02:48:41.998Z,96.95
2022-11-24T02:51:09.522Z,96.71
2022-11-24T02:53:36.659Z,97.27
2022-11-24T02:56:04.123Z,97.09
2022-11-24T02:58:31.324Z,97.10
2022-11-24T03:01:00.085Z,97.16
2022-11-24T03:03:27.846Z,97.32
2022-11-24T03:05:55.120Z,97.08
2022-11-24T03:08:22.102Z,96.86
2022-11-24T03:10:49.512Z,97.11
2022-11-24T03:13:16.523Z,96.93
2022-11-24T03:15:43.672Z,95.33
2022-11-24T03:18:10.862Z,93.07
2022-11-24T03:20:37.934Z,93.44
2022-11-24T03:23:05.174Z,94.11
2022-11-24T03:25:32.157Z,93.97
2022-11-24T03:27:59.208Z,93.75
2022-11-24T03:30:29.367Z,94.08
2022-11-24T03:32:59.646Z,92.65
2022-11-24T03:35:29.728Z,91.90
2022-11-24T03:38:02.323Z,92.65
2022-11-24T03:40:31.731Z,92.90
2022-11-24T03:42:58.882Z,93.03
2022-11-24T03:45:45.420Z,93.34
2022-11-24T03:48:13.926Z,93.47
2022-11-24T03:50:40.914Z,93.35
2022-11-24T03:53:08.193Z,93.23
2022-11-24T03:55:36.006Z,91.86
2022-11-24T03:58:03.037Z,91.85
2022-11-24T04:00:30.230Z,91.85
2022-11-24T04:02:57.336Z,92.20
2022-11-24T04:05:25.569Z,92.48
2022-11-24T04:07:56.529Z,92.88
2022-11-24T04:10:25.315Z,93.73
2022-11-24T04:12:55.474Z,94.07
2022-11-24T04:15:22.758Z,94.30
2022-11-24T04:17:56.005Z,94.78
2022-11-24T04:20:23.841Z,94.61
2022-11-24T04:22:52.402Z,95.34
2022-11-24T04:25:25.367Z,95.16
2022-11-24T04:27:54.255Z,95.43
2022-11-24T04:30:23.638Z,95.70
2022-11-24T04:32:53.649Z,95.60
2022-11-24T04:35:24.186Z,95.86
2022-11-24T04:37:53.564Z,95.83
2022-11-24T04:40:23.555Z,95.81
2022-11-24T04:42:56.909Z,95.74
2022-11-24T04:45:26.021Z,95.57
2022-11-24T04:47:53.087Z,95.56
2022-11-24T04:50:20.105Z,95.39
2022-11-24T04:52:47.165Z,95.53
2022-11-24T04:55:14.109Z,95.95
2022-11-24T04:57:41.198Z,96.33
2022-11-24T05:00:09.697Z,96.24
2022-11-24T05:02:37.126Z,96.19
2022-11-24T05:05:05.347Z,96.33
2022-11-24T05:07:33.115Z,95.95
2022-11-24T05:10:18.679Z,95.75
2022-11-24T05:12:51.069Z,95.80
2022-11-24T05:15:18.613Z,95.50
2022-11-24T05:17:45.865Z,95.27
2022-11-24T05:20:12.811Z,95.25
2022-11-24T05:22:39.864Z,95.33
2022-11-24T05:25:07.167Z,94.91
2022-11-24T05:27:34.441Z,95.08
2022-11-24T05:30:01.546Z,95.05
2022-11-24T05:32:28.760Z,94.69
2022-11-24T05:34:56.936Z,94.46
2022-11-24T05:37:25.906Z,94.51
2022-11-24T05:39:54.828Z,94.69
2022-11-24T05:42:46.221Z,94.09
2022-11-24T05:45:17.367Z,90.80
2022-11-24T05:47:44.929Z,92.28
2022-11-24T05:50:14.438Z,93.67
2022-11-24T05:52:42.126Z,93.92
2022-11-24T05:55:10.552Z,92.38
2022-11-24T05:57:37.558Z,92.06
2022-11-24T06:00:07.186Z,94.18
2022-11-24T06:02:39.606Z,94.86
2022-11-24T06:05:07.080Z,94.84
2022-11-24T06:07:36.221Z,94.27
2022-11-24T06:10:04.023Z,94.61
2022-11-24T06:12:31.162Z,95.56
2022-11-24T06:14:58.167Z,95.02
2022-11-24T06:17:25.608Z,94.06
2022-11-24T06:19:53.071Z,95.00
2022-11-24T06:22:20.408Z,94.93
2022-11-24T06:24:47.463Z,95.26
2022-11-24T06:27:14.665Z,95.79
2022-11-24T06:29:41.896Z,95.82
2022-11-24T06:32:09.401Z,96.27
2022-11-24T06:34:37.165Z,96.41
2022-11-24T06:37:05.135Z,96.06
2022-11-24T06:39:32.365Z,93.86
2022-11-24T06:41:59.534Z,91.80
2022-11-24T06:44:26.739Z,93.80
2022-11-24T06:46:53.910Z,94.88
2022-11-24T06:49:21.162Z,95.85
2022-11-24T06:51:48.546Z,95.82
2022-11-24T06:54:17.943Z,93.35
2022-11-24T06:56:45.013Z,91.34
2022-11-24T06:59:18.820Z,91.40
2022-11-24T07:01:47.065Z,93.56
2022-11-24T07:04:17.344Z,93.69
2022-11-24T07:06:44.858Z,93.70
2022-11-24T07:09:13.658Z,94.54
2022-11-24T07:11:41.498Z,96.00
2022-11-24T07:14:08.940Z,96.54
2022-11-24T07:16:36.407Z,96.59
2022-11-24T07:19:03.753Z,93.73
2022-11-24T07:21:31.057Z,94.54
2022-11-24T07:23:58.765Z,93.44
2022-11-24T07:26:26.282Z,94.89
2022-11-24T07:28:54.540Z,97.44
2022-11-24T07:31:25.289Z,98.70
2022-11-24T07:33:54.317Z,100.00
2022-11-24T07:36:22.219Z,100.00
2022-11-24T07:38:49.810Z,100.00
2022-11-24T07:41:20.089Z,100.00
2022-11-24T07:43:47.800Z,100.00
2022-11-24T07:46:16.917Z,100.00
2022-11-24T07:48:44.438Z,100.00
2022-11-24T07:51:12.370Z,100.00
2022-11-24T07:53:40.041Z,100.00
2022-11-24T07:56:07.806Z,100.00
2022-11-24T07:58:37.109Z,100.00
2022-11-24T08:01:16.956Z,100.00
2022-11-24T08:03:46.022Z,100.00
2022-11-24T08:06:38.130Z,100.00
2022-11-24T08:09:00.866Z,100.00
2022-11-24T08:11:28.332Z,100.00
2022-11-24T08:13:55.496Z,100.00
2022-11-24T08:16:23.085Z,100.00
2022-11-24T08:18:55.380Z,100.00
2022-11-24T08:21:26.086Z,100.00
2022-11-24T08:23:57.378Z,100.00
2022-11-24T08:26:25.672Z,100.00
2022-11-24T08:28:58.552Z,100.00
2022-11-24T08:31:34.743Z,100.00
2022-11-24T08:34:03.921Z,100.00
2022-11-24T08:36:31.461Z,100.00
2022-11-24T08:39:00.651Z,100.00
2022-11-24T08:41:29.129Z,100.00
2022-11-24T08:43:56.263Z,100.00
2022-11-24T08:46:24.172Z,100.00
2022-11-24T08:48:53.558Z,100.00
2022-11-24T08:51:26.377Z,100.00
2022-11-24T08:53:58.628Z,100.00
2022-11-24T08:56:30.923Z,100.00
2022-11-24T08:58:59.039Z,100.00
2022-11-24T09:01:27.301Z,100.00
2022-11-24T09:03:54.593Z,100.00
2022-11-24T09:06:25.348Z,100.00
2022-11-24T09:08:54.686Z,100.00
2022-11-24T09:11:22.300Z,100.00
2022-11-24T09:13:49.888Z,100.00
2022-11-24T09:16:20.602Z,100.00
2022-11-24T09:18:48.410Z,100.00
2022-11-24T09:21:20.494Z,100.00
2022-11-24T09:23:49.587Z,100.00
2022-11-24T09:26:43.049Z,100.00
2022-11-24T09:29:14.054Z,100.00
2022-11-24T09:31:41.333Z,100.00
2022-11-24T09:34:12.841Z,100.00
2022-11-24T09:36:39.980Z,100.00
2022-11-24T09:39:06.946Z,100.00
2022-11-24T09:42:00.599Z,100.00
2022-11-24T09:45:03.605Z,100.00
2022-11-24T09:48:02.785Z,100.00
2022-11-24T09:50:36.703Z,100.00
2022-11-24T09:53:34.532Z,100.00
2022-11-24T09:56:22.149Z,100.00
2022-11-24T09:59:17.260Z,100.00
2022-11-24T10:01:47.084Z,100.00
2022-11-24T10:04:21.109Z,100.00
2022-11-24T10:07:40.953Z,100.00
2022-11-24T10:10:29.911Z,100.00
2022-11-24T10:13:28.711Z,100.00
2022-11-24T10:16:10.225Z,100.00
2022-11-24T10:18:56.342Z,100.00
2022-11-24T10:21:45.176Z,99.85
2022-11-24T10:25:19.722Z,100.00
2022-11-24T10:28:00.399Z,100.00
2022-11-24T10:30:27.475Z,96.35
2022-11-24T10:33:16.291Z,97.60
2022-11-24T10:35:56.906Z,96.00
2022-11-24T10:38:57.238Z,96.51
2022-11-24T10:41:45.517Z,96.81
2022-11-24T10:44:15.860Z,94.98
2022-11-24T10:46:43.114Z,93.81
2022-11-24T10:49:20.127Z,93.48
2022-11-24T10:51:57.334Z,92.85
2022-11-24T10:54:24.671Z,92.08
2022-11-24T10:56:54.320Z,92.46
2022-11-24T10:59:40.620Z,89.98
2022-11-24T11:02:40.304Z,91.32
2022-11-24T11:05:51.358Z,90.01
2022-11-24T11:08:27.838Z,89.41
2022-11-24T11:11:33.384Z,90.33
2022-11-24T11:14:04.605Z,91.08
2022-11-24T11:17:06.454Z,90.15
2022-11-24T11:20:02.582Z,88.94
2022-11-24T11:23:03.139Z,89.21
2022-11-24T11:25:39.327Z,88.06
2022-11-24T11:28:30.411Z,86.55
2022-11-24T11:31:17.439Z,87.56
2022-11-24T11:34:29.993Z,87.83
2022-11-24T11:37:00.507Z,87.43
2022-11-24T11:39:35.114Z,85.93
2022-11-24T11:43:02.422Z,87.00
2022-11-24T11:45:39.457Z,85.64
2022-11-24T11:48:43.163Z,84.27
2022-11-24T11:55:00.752Z,84.28
2022-11-24T11:58:13.824Z,83.04
2022-11-24T12:00:48.824Z,82.50
2022-11-24T12:03:35.020Z,81.22
2022-11-24T12:06:39.843Z,79.20
2022-11-24T12:09:47.975Z,80.15
2022-11-24T12:49:30.433Z,75.91
2022-11-24T12:52:04.930Z,76.43
2022-11-24T12:54:39.694Z,75.32
2022-11-24T12:57:21.362Z,76.82
2022-11-24T13:00:21.296Z,77.34
2022-11-24T13:03:52.965Z,76.49
2022-11-24T13:06:49.107Z,77.63
2022-11-24T13:09:17.230Z,76.74
2022-11-24T13:11:46.889Z,76.35
2022-11-24T13:14:34.705Z,78.06
2022-11-24T13:17:30.705Z,75.03
2022-11-24T13:20:33.901Z,74.65
2022-11-24T13:23:04.229Z,73.66
2022-11-24T13:25:34.012Z,72.55
2022-11-24T13:28:06.848Z,73.92
2022-11-24T13:30:55.197Z,72.88
2022-11-24T13:33:31.272Z,72.84
2022-11-24T13:36:34.129Z,71.06
2022-11-24T13:39:02.350Z,71.22
2022-11-24T13:42:01.428Z,70.88
2022-11-24T13:44:29.494Z,71.67
2022-11-24T13:47:32.750Z,71.10
2022-11-24T13:50:01.018Z,66.25
2022-11-24T13:52:52.452Z,63.00
2022-11-24T13:55:29.752Z,62.50
2022-11-24T13:58:00.725Z,63.24
2022-11-24T14:00:32.204Z,58.42
2022-11-24T14:03:18.554Z,59.56
2022-11-24T14:05:53.520Z,62.67
2022-11-24T14:08:25.735Z,64.48
2022-11-24T14:10:55.718Z,66.82
2022-11-24T14:13:28.424Z,64.71
2022-11-24T14:16:17.114Z,66.04
2022-11-24T14:18:52.204Z,67.57
2022-11-24T14:21:36.888Z,67.05
2022-11-24T14:24:13.456Z,66.57
2022-11-24T14:26:41.600Z,67.56
2022-11-24T14:29:21.272Z,66.93
2022-11-24T14:32:04.051Z,68.21
2022-11-24T14:34:35.908Z,67.93
2022-11-24T14:37:03.408Z,68.49
2022-11-24T14:39:30.604Z,67.12
2022-11-24T14:42:22.449Z,66.80
2022-11-24T14:44:56.985Z,68.44
2022-11-24T14:47:37.889Z,68.20
2022-11-24T14:50:19.961Z,68.68
2022-11-24T14:52:54.537Z,68.99
2022-11-24T14:55:32.757Z,70.18
2022-11-24T14:58:00.436Z,70.14
2022-11-24T15:00:33.047Z,71.17
2022-11-24T15:03:19.322Z,72.75
2022-11-24T15:06:00.633Z,72.96
2022-11-24T15:08:31.326Z,72.66
2022-11-24T15:11:01.259Z,73.80
2022-11-24T15:13:30.105Z,72.87
2022-11-24T15:16:03.112Z,72.77
2022-11-24T15:18:41.650Z,72.93
2022-11-24T15:21:15.564Z,72.74
2022-11-24T15:24:06.047Z,73.44
2022-11-24T15:26:41.679Z,74.42
2022-11-24T15:29:10.699Z,75.39
2022-11-24T15:31:39.462Z,75.68
2022-11-24T15:34:07.477Z,76.74
2022-11-24T15:36:37.042Z,76.56
2022-11-24T15:39:04.087Z,75.71
2022-11-24T15:41:33.124Z,74.44
2022-11-24T15:44:00.501Z,74.12
2022-11-24T15:46:29.236Z,74.75
2022-11-24T15:48:56.702Z,75.69
2022-11-24T15:51:27.083Z,76.06
2022-11-24T15:54:00.990Z,76.33
2022-11-24T15:56:34.680Z,75.71
2022-11-24T15:59:02.541Z,76.14
2022-11-24T16:01:33.400Z,76.59
2022-11-24T16:04:07.892Z,77.46
2022-11-24T16:06:42.723Z,77.87
2022-11-24T16:09:14.873Z,78.23
2022-11-24T16:11:42.092Z,79.08
2022-11-24T16:14:09.159Z,80.01
2022-11-24T16:16:36.504Z,80.30
2022-11-24T16:19:03.656Z,80.60
2022-11-24T16:21:30.817Z,81.21
2022-11-24T16:23:57.823Z,81.47
2022-11-24T16:26:24.891Z,81.04
2022-11-24T16:28:52.046Z,80.82
2022-11-24T16:31:20.090Z,81.06
2022-11-24T16:33:47.278Z,80.53
2022-11-24T16:36:14.367Z,81.10
2022-11-24T16:38:41.738Z,81.01
2022-11-24T16:41:10.616Z,80.24
2022-11-24T16:43:37.853Z,81.00
2022-11-24T16:46:23.784Z,80.61
2022-11-24T16:48:55.821Z,80.81
2022-11-24T16:51:29.919Z,80.60
2022-11-24T16:54:02.225Z,81.22
2022-11-24T16:56:30.212Z,80.88
2022-11-24T16:58:57.290Z,81.16
2022-11-24T17:01:26.130Z,81.04
2022-11-24T17:03:55.744Z,80.61
2022-11-24T17:06:27.077Z,79.83
2022-11-24T17:08:58.527Z,80.70
2022-11-24T17:11:31.685Z,81.39
2022-11-24T17:13:59.389Z,81.37
2022-11-24T17:16:29.825Z,79.09
2022-11-24T17:19:01.305Z,77.88
2022-11-24T17:21:28.855Z,76.87
2022-11-24T17:24:03.026Z,77.73
2022-11-24T17:26:35.449Z,78.93
2022-11-24T17:29:02.517Z,80.04
2022-11-24T17:31:35.972Z,81.09
2022-11-24T17:34:04.852Z,79.64
2022-11-24T17:36:33.869Z,79.08
2022-11-24T17:39:01.602Z,79.43
2022-11-24T17:41:29.642Z,79.02
2022-11-24T17:43:56.865Z,78.95
2022-11-24T17:46:31.023Z,79.19
2022-11-24T17:48:58.162Z,78.05
2022-11-24T17:51:26.967Z,76.86
2022-11-24T17:53:55.762Z,78.33
2022-11-24T17:56:27.686Z,78.59
2022-11-24T17:58:59.452Z,77.77
2022-11-24T18:01:28.765Z,78.08
2022-11-24T18:03:56.161Z,76.82
2022-11-24T18:06:26.266Z,76.41
2022-11-24T18:08:57.873Z,77.63
2022-11-24T18:11:31.822Z,78.79
2022-11-24T18:14:02.683Z,77.48
2022-11-24T18:16:32.861Z,77.41
2022-11-24T18:19:10.433Z,77.22
2022-11-24T18:21:42.400Z,76.66
2022-11-24T18:24:10.706Z,77.82
2022-11-24T18:26:39.020Z,78.53
2022-11-24T18:29:06.346Z,76.80
2022-11-24T18:31:35.827Z,77.39
2022-11-24T18:34:04.693Z,76.75
2022-11-24T18:36:32.599Z,78.24
2022-11-24T18:39:07.346Z,77.98
2022-11-24T18:41:35.199Z,77.37
2022-11-24T18:44:03.370Z,78.16
2022-11-24T18:46:30.463Z,77.58
2022-11-24T18:48:57.518Z,76.86
2022-11-24T18:51:24.606Z,76.50
2022-11-24T18:53:54.726Z,76.96
2022-11-24T18:56:22.062Z,77.82
2022-11-24T18:58:56.712Z,77.21
2022-11-24T19:01:31.340Z,78.52
2022-11-24T19:04:01.928Z,78.53
2022-11-24T19:06:38.805Z,77.08
2022-11-24T19:09:12.658Z,77.39
2022-11-24T19:11:42.058Z,77.64
2022-11-24T19:14:12.277Z,77.63
2022-11-24T19:16:39.741Z,77.62
2022-11-24T19:19:07.177Z,77.46
2022-11-24T19:21:37.291Z,77.64
2022-11-24T19:24:10.459Z,77.20
2022-11-24T19:26:38.092Z,77.94
2022-11-24T19:29:06.345Z,77.82
2022-11-24T19:31:34.097Z,77.49
2022-11-24T19:34:03.244Z,77.76
2022-11-24T19:36:30.526Z,77.68
2022-11-24T19:38:58.545Z,78.53
2022-11-24T19:41:30.380Z,79.29
2022-11-24T19:43:59.149Z,79.69
2022-11-24T19:46:30.003Z,79.81
2022-11-24T19:49:00.549Z,79.24
2022-11-24T19:51:33.146Z,80.42
2022-11-24T19:54:00.920Z,80.63
2022-11-24T19:56:30.170Z,80.25
2022-11-24T19:58:57.320Z,79.89
2022-11-24T20:01:27.604Z,79.25
2022-11-24T20:04:02.820Z,80.13
2022-11-24T20:06:36.948Z,79.76
2022-11-24T20:09:06.083Z,79.23
2022-11-24T20:11:33.390Z,80.21
2022-11-24T20:14:00.606Z,80.93
2022-11-24T20:16:32.669Z,80.12
2022-11-24T20:19:01.985Z,80.46
2022-11-24T20:21:32.734Z,81.26
2022-11-24T20:24:07.993Z,81.96
2022-11-24T20:26:38.591Z,82.17
2022-11-24T20:29:06.847Z,82.43
2022-11-24T20:31:36.201Z,82.61
2022-11-24T20:34:05.079Z,82.71
2022-11-24T20:36:33.410Z,82.36
2022-11-24T20:39:02.143Z,82.63
2022-11-24T20:41:32.033Z,82.62
2022-11-24T20:44:00.746Z,82.87
2022-11-24T20:46:33.631Z,82.92
2022-11-24T20:49:00.965Z,83.68
2022-11-24T20:51:34.147Z,84.06
2022-11-24T20:54:04.681Z,84.53
2022-11-24T20:56:35.170Z,83.62
2022-11-24T20:59:03.786Z,82.99
2022-11-24T21:01:35.351Z,82.06
2022-11-24T21:04:03.475Z,83.15
2022-11-24T21:06:31.071Z,84.13
2022-11-24T21:09:03.504Z,84.12
2022-11-24T21:11:31.788Z,85.04
2022-11-24T21:14:00.403Z,84.43
2022-11-24T21:16:35.728Z,85.55
2022-11-24T21:19:09.732Z,86.18
2022-11-24T21:21:37.664Z,86.51
2022-11-24T21:24:11.770Z,87.11
2022-11-24T21:26:39.914Z,87.76
2022-11-24T21:29:08.275Z,87.12
2022-11-24T21:31:37.155Z,87.75
2022-11-24T21:34:05.595Z,88.08
2022-11-24T21:36:35.138Z,87.80
2022-11-24T21:39:03.638Z,87.97
2022-11-24T21:41:33.165Z,88.69
2022-11-24T21:44:00.747Z,88.49
2022-11-24T21:46:39.070Z,88.81
2022-11-24T21:49:09.409Z,88.09
2022-11-24T21:51:36.817Z,88.44
2022-11-24T21:54:03.999Z,88.66
2022-11-24T21:56:30.975Z,88.45
2022-11-24T21:58:59.251Z,87.82
2022-11-24T22:01:28.643Z,87.75
2022-11-24T22:04:01.342Z,86.81
2022-11-24T22:06:28.355Z,86.58
2022-11-24T22:08:55.468Z,86.65
2022-11-24T22:11:26.899Z,86.15
2022-11-24T22:13:54.226Z,84.58
2022-11-24T22:16:26.426Z,83.53
2022-11-24T22:18:56.123Z,84.37
2022-11-24T22:21:30.881Z,84.81
2022-11-24T22:23:57.984Z,82.55
2022-11-24T22:26:26.393Z,80.67
2022-11-24T22:28:58.002Z,81.70
2022-11-24T22:31:27.827Z,81.38
2022-11-24T22:33:55.829Z,82.79
2022-11-24T22:36:26.127Z,83.25
2022-11-24T22:39:04.265Z,82.93
2022-11-24T22:41:33.507Z,83.74
2022-11-24T22:44:00.922Z,83.02
2022-11-24T22:46:29.992Z,83.86
2022-11-24T22:48:59.529Z,84.80
2022-11-24T22:51:32.755Z,84.96
2022-11-24T22:54:02.363Z,83.62
2022-11-24T22:56:32.564Z,83.03
2022-11-24T22:59:00.831Z,83.32
2022-11-24T23:01:29.339Z,83.02
2022-11-24T23:03:56.424Z,82.88
2022-11-24T23:06:30.494Z,83.74
2022-11-24T23:08:58.874Z,83.60
2022-11-24T23:11:34.948Z,83.04
2022-11-24T23:14:05.860Z,83.88
2022-11-24T23:16:32.969Z,84.73
2022-11-24T23:19:00.149Z,84.66
2022-11-24T23:21:29.670Z,85.37
2022-11-24T23:23:58.504Z,86.46
2022-11-24T23:26:38.057Z,86.62
2022-11-24T23:29:05.843Z,86.79
2022-11-24T23:31:33.223Z,86.89
2022-11-24T23:34:02.850Z,86.24
2022-11-24T23:36:30.901Z,87.01
2022-11-24T23:39:02.942Z,87.88
2022-11-24T23:41:30.662Z,87.00
2022-11-24T23:44:00.093Z,87.35
2022-11-24T23:46:28.546Z,87.93
2022-11-24T23:48:56.565Z,88.29
2022-11-24T23:51:27.187Z,88.13
2022-11-24T23:56:39.012Z,88.65
2022-11-24T23:59:05.987Z,89.11
